This is the latest recevied weather packets stored in our database for station/object BAGASKAR. If no packets are shown the sender has not sent any weather packets the latest 10 day(s).
| Time | Temp. | Humidity | Pressure | Rain* | Wind** | Luminosity | Snow |
|---|---|---|---|---|---|---|---|
| 1777549614 | 8.33° C | 99% | 1021.3 hPa | - | - | - | - |
| 1777548414 | 7.78° C | 99% | 1021.4 hPa | - | - | - | - |
| 1777547214 | 8.89° C | 89% | 1021.5 hPa | - | - | - | - |
| 1777546014 | 9.44° C | 90% | 1021.7 hPa | - | - | - | - |
| 1777544814 | 10° C | 86% | 1021.6 hPa | - | - | - | - |
| 1777543614 | 10° C | 84% | 1021.7 hPa | - | - | - | - |
| 1777542414 | 8.33° C | 95% | 1021.8 hPa | - | - | - | - |
| 1777541214 | 7.22° C | 100% | 1021.8 hPa | - | - | - | - |
| 1777540014 | 6.67° C | 100% | 1021.9 hPa | - | - | - | - |
| 1777538814 | 6.67° C | 100% | 1021.9 hPa | - | - | - | - |
| 1777537614 | 6.67° C | 100% | 1022 hPa | - | - | - | - |
| 1777536414 | 6.67° C | 100% | 1022 hPa | - | - | - | - |
| 1777535214 | 6.67° C | 100% | 1022.1 hPa | - | - | - | - |
| 1777534014 | 7.22° C | 100% | 1022.1 hPa | - | - | - | - |
| 1777532813 | 7.22° C | 99% | 1022 hPa | - | - | - | - |
| 1777531613 | 6.67° C | 100% | 1022.2 hPa | - | - | - | - |
| 1777530414 | 6.67° C | 100% | 1022 hPa | - | - | - | - |
| 1777529213 | 6.11° C | 100% | 1022.3 hPa | - | - | - | - |
| 1777528013 | 5.56° C | 100% | 1022.5 hPa | - | - | - | - |
| 1777526813 | 5.56° C | 100% | 1022.6 hPa | - | - | - | - |
| 1777525613 | 5.56° C | 100% | 1022.5 hPa | - | - | - | - |
| 1777524413 | 5° C | 100% | 1022.7 hPa | - | - | - | - |
| 1777523213 | 5° C | 100% | 1022.7 hPa | - | - | - | - |
| 1777522013 | 5° C | 100% | 1022.3 hPa | - | - | - | - |
| 1777520813 | 5° C | 99% | 1022.7 hPa | - | - | - | - |
* Rain since midnight (hover to see other rain measurements)
** Current wind speed in m/s (hover to see current wind gust speed)